New Johnsonville, Tennessee
Current Conditions -  °F | °C
As of 1:55 AM on Saturday 25 Oct 2014 (Local Time) from KPVE Reporting Station
Overcast Overcast  
Wind Chill: 45°   Ceiling: 200
Heat Index: 45°   Visibility: 0.25mi
Dew Point: 45°   Wind: 0mph
Humidity: 100%   Direction: NA
Pressure: 30.08"   Gusts: NA
Location:  36.02°N, 87.97°W
Report Text: KPVE 250655Z AUTO 00000KT 1/4SM VV002 07/07 A3008 RMK
Loading
Personal Weather Stations






























Interactive Weather Map
Tropical Storm Tracking
New forecast layout! Learn more

10-Day Weather Forecast

Advertisements
Track Severe Weather on mobile